Aérodrome :
LOGIN :

S'inscrire | Disclaimer

   EN    FR    IT 

 










Légende :    VFR   VFR Marginal   IFR   IFR Intensif   IFR Très Intensif
Visi : 
Plafond : 
>= 8 km
>= 3000ft
5 à 8 km
1000 à 3000 ft
1500m à 5 km
500 à 1000 ft
800 à 1500m
200 à 500 ft
< 800m
< 200 ft
Symboles :   Orages  Brouillard  Fortes neiges  Fortes précipitations  Vent > 20 kt
SIGMETs :   Divers  Orages  Givrage  Turbulence  Onde Orograph.  Cendres Volcan.







- Altitude de l'aérodrome : 1119 ft


GMAG - Guelmime

DERNIER METAR :
  • 201500Z 3412KT 9999 BKN016 18/12 Q1015 NOSIG

METARs EXPIRÉS :
  • 201400Z 3408KT 9999 BKN016 18/12 Q1015 NOSIG
  • 201300Z 33010KT 9999 BKN016 17/13 Q1016 NOSIG

TAF N/A
Pas de NOTAMs connus pour ce terrain.
1 SIGMET publié pour la FIR Casablanca (GMMM) :
 
Onde orographique forte
GMMM SIGMET O2 VALID 201430/201830 GMMC
GMMM CASABLANCA FIR SEV MTW FCST N OF LINE N3538 W00524 - N3328 W004 37 - N3346 W00150 FL020/160 STNR NC=



MET'MAP, la Météo Aéronautique d'un coup d'oeil ! - Copyright ORBIFLY Décembre 2007 - Disclaimer

ORBIFLY MET'MAP TEAM :

Programmation & Développement : Alexandra Zaïnal
Conception & Développement : Baudouin d'Aumeries
Co-Programmation & Développement : Marc-Olivier Méhu
Soutien technique & logistique : Manuel Goepfert

Contact : metmap@orbifly.com




SOURCES & CREDITS :

   NOAA